Brixey, MO (65618)

11:14 AM CST on March 05, 2015 (GMT -0600)
Trail Hollow | Change Station
CLOSE
Current Station
Personal Weather Station
Location: DORA, MO
Elevation: 965 ft
Nearby Weather Stations

Elev 965 ft 36.77 °N, 92.27 °W | Updated 13 seconds ago

Clear
Clear
28.1 °F
Feels Like 17 °F
N
13.0
Wind Variable Wind from NNW
Gusts 22.0 mph

Today
High -- | Low -- °F
--% Chance of Precip.
Yesterday
High -- | Low -- °F
Precip. -- in
6:35 AM 6:07 PM
Full, 100% visible
Pressure 30.57 in
Visibility 10.0 miles
Clouds Clear
Windchill 17 °F
Dew Point 6 °F
Humidity 38%
Rainfall in
Snow Depth Not available.
UV 6 out of 12
Pollen 1.80 out of 12
Air Quality Not available.
Flu Activity Not available.
METAR KBPK 051653Z AUTO 34013G20KT 10SM CLR M02/M13 A3053 RMK AO2 SLP350 T10221133 PNO $

More Conditions Fewer Conditions

Pressure 30.57 in
Visibility 10.0 miles
Clouds Clear
Windchill 17 °F
Dew Point 6 °F
Humidity 38%
Rainfall in
Snow Depth Not available.
UV 6 out of 12
Pollen 1.80 out of 12
Air Quality Not available.
Flu Activity Not available.
METAR KBPK 051653Z AUTO 34013G20KT 10SM CLR M02/M13 A3053 RMK AO2 SLP350 T10221133 PNO $

More Conditions Fewer Conditions

10-Day Weather Forecast

Almanac

Astronomy

Mar. 05, 2015 Rise Set
Actual Time
Civil Twilight
Nautical Twilight
Astronomical Twilight
Moon
Length of Visible Light
Length of Day
Tomorrow will be .
, % of the Moon is Illuminated

Today's Extremes

State Highs State Lows

Community

WunderPhotos

Upload Photos

1,802,866 photos uploaded!

WunderBlogs® & News

Nearby

Air Quality

  Air Quality AQ Index Pollutant
Not available.

Snow Depth

Station Depth Elevation

Earthquake Activity

City Distance Mag. Time & Date
Minimum magnitude displayed is 2.5.

Coastal Water Temperatures

Place Temperature

Nearby Weather Stations